Time;durP1;ratioP1;P1;durP2;ratioP2;P2;SDS_P1;SDS_P2;PMS_P1;PMS_P2;Temp;Humidity;BMP_temperature;BMP_pressure;BME280_temperature;BME280_humidity;BME280_pressure;Samples;Min_cycle;Max_cycle;Signal;HPM_P1;HPM_P2
2022/09/10 00:01:40;;;;;;;15.75;9.40;;;;;;;23.62;63.95;98322.19;4503207;31;21018;-81
2022/09/10 00:04:11;;;;;;;16.33;9.38;;;;;;;23.62;63.79;98325.72;4503288;31;20106;-81
2022/09/10 00:06:37;;;;;;;14.70;8.80;;;;;;;23.58;63.91;98327.09;4488594;31;20500;-81
2022/09/10 00:09:04;;;;;;;15.63;9.48;;;;;;;23.60;63.88;98322.38;4488624;31;20104;-81
2022/09/10 00:11:30;;;;;;;15.10;9.32;;;;;;;23.52;64.20;98325.94;4502464;31;20092;-81
2022/09/10 00:14:02;;;;;;;15.65;8.70;;;;;;;23.60;64.02;98324.22;4503019;31;20133;-81
2022/09/10 00:16:28;;;;;;;15.35;9.07;;;;;;;23.63;64.08;98332.78;4488758;31;20107;-81
2022/09/10 00:18:54;;;;;;;14.70;8.55;;;;;;;23.55;64.33;98333.66;4502772;31;20075;-81
2022/09/10 00:21:20;;;;;;;15.55;9.10;;;;;;;23.55;64.27;98328.28;4488576;31;20527;-81
2022/09/10 00:23:46;;;;;;;15.45;9.27;;;;;;;23.61;64.00;98323.22;4488638;31;20112;-81
2022/09/10 00:26:27;;;;;;;16.52;10.13;;;;;;;23.64;63.98;98315.66;4488610;31;20446;-81
2022/09/10 00:28:55;;;;;;;16.92;10.32;;;;;;;23.63;63.86;98308.56;4503081;31;20076;-81
2022/09/10 00:31:21;;;;;;;16.08;9.85;;;;;;;23.60;63.86;98314.31;4488653;31;20100;-80
2022/09/10 00:33:49;;;;;;;15.75;9.73;;;;;;;23.55;64.07;98316.72;4503206;31;20118;-81
2022/09/10 00:36:36;;;;;;;16.15;9.25;;;;;;;23.57;64.05;98305.78;4502769;31;20080;-80
2022/09/10 00:39:04;;;;;;;17.77;9.32;;;;;;;23.55;64.11;98304.09;4502393;31;20145;-80
2022/09/10 00:41:30;;;;;;;16.98;9.88;;;;;;;23.60;63.92;98300.84;4502889;31;20106;-81
2022/09/10 00:44:01;;;;;;;16.60;9.77;;;;;;;23.60;63.82;98295.47;4502787;31;20092;-80
2022/09/10 00:46:38;;;;;;;15.75;9.85;;;;;;;23.55;63.92;98295.19;4502791;31;20109;-80
2022/09/10 00:49:12;;;;;;;16.65;9.98;;;;;;;23.56;63.91;98304.91;4488400;31;20460;-81
2022/09/10 00:51:37;;;;;;;17.55;10.18;;;;;;;23.51;63.91;98297.41;4488329;31;20120;-80
2022/09/10 00:54:04;;;;;;;18.37;10.80;;;;;;;23.47;63.96;98298.78;4502900;31;20083;-80
2022/09/10 00:56:30;;;;;;;18.00;10.32;;;;;;;23.45;64.02;98300.81;4488485;31;20100;-81
2022/09/10 00:58:55;;;;;;;20.00;11.90;;;;;;;23.49;63.98;98293.22;4488398;31;20129;-80
2022/09/10 01:01:22;;;;;;;19.83;11.77;;;;;;;23.41;64.02;98294.13;4502538;31;20112;-80
2022/09/10 01:03:48;;;;;;;19.35;12.30;;;;;;;23.40;63.90;98289.75;4502837;31;20115;-81
2022/09/10 01:06:14;;;;;;;21.27;13.02;;;;;;;22.94;64.78;98284.25;4488258;31;20106;-80
2022/09/10 01:08:40;;;;;;;19.58;11.88;;;;;;;22.77;65.15;98278.97;4502806;31;20076;-81
2022/09/10 01:11:17;;;;;;;20.92;12.77;;;;;;;23.04;64.46;98284.06;4502693;31;20114;-81
2022/09/10 01:13:56;;;;;;;19.58;11.95;;;;;;;23.09;64.53;98282.53;4502447;31;20100;-82
2022/09/10 01:16:37;;;;;;;18.60;11.02;;;;;;;23.02;64.68;98286.06;4488147;31;20110;-81
2022/09/10 01:19:15;;;;;;;21.58;12.77;;;;;;;23.13;64.53;98280.34;4474745;31;20449;-81
2022/09/10 01:22:14;;;;;;;18.85;11.43;;;;;;;22.92;65.10;98286.28;4502002;31;20084;-81
2022/09/10 01:24:54;;;;;;;23.38;15.30;;;;;;;23.03;64.68;98283.25;4487995;31;20096;-81
2022/09/10 01:27:32;;;;;;;22.25;13.93;;;;;;;22.89;64.74;98275.88;4502254;31;20092;-80
2022/09/10 01:30:06;;;;;;;16.55;9.40;;;;;;;22.75;65.33;98272.06;4502287;31;20080;-80
2022/09/10 01:32:34;;;;;;;14.25;8.32;;;;;;;22.70;63.71;98266.41;4487933;31;20130;-81
2022/09/10 01:35:22;;;;;;;14.60;8.35;;;;;;;22.29;62.78;98263.84;4502166;31;20110;-80
2022/09/10 01:37:53;;;;;;;13.45;7.37;;;;;;;22.13;63.12;98252.09;4502234;31;20152;-80
2022/09/10 01:40:19;;;;;;;11.95;6.10;;;;;;;22.39;62.69;98253.75;4487864;31;20085;-81
2022/09/10 01:42:45;;;;;;;12.30;6.05;;;;;;;22.40;61.58;98243.84;4502036;31;20506;-80
2022/09/10 01:45:13;;;;;;;13.60;5.50;;;;;;;22.16;61.32;98238.34;4502052;31;20109;-81
2022/09/10 01:47:58;;;;;;;11.30;5.57;;;;;;;22.31;60.91;98234.97;4487573;31;20468;-81
2022/09/10 01:50:29;;;;;;;12.63;5.65;;;;;;;22.40;60.57;98233.94;4487721;31;20084;-80
2022/09/10 01:52:58;;;;;;;10.65;5.15;;;;;;;22.47;60.32;98220.69;4487516;31;20164;-81
2022/09/10 01:55:40;;;;;;;11.25;5.55;;;;;;;22.53;60.18;98220.00;4501888;31;20095;-81
2022/09/10 01:58:33;;;;;;;12.32;5.22;;;;;;;22.33;60.68;98233.00;4501709;31;20107;-80
2022/09/10 02:01:19;;;;;;;11.25;5.35;;;;;;;22.22;61.17;98244.06;4501666;31;20451;-81
2022/09/10 02:03:47;;;;;;;12.77;5.37;;;;;;;22.35;61.03;98239.03;4487482;31;20154;-80
2022/09/10 02:06:17;;;;;;;11.73;5.20;;;;;;;22.38;61.26;98223.38;4487666;31;20470;-80
2022/09/10 02:08:44;;;;;;;12.93;5.90;;;;;;;22.31;61.58;98222.41;4487878;31;20406;-81
2022/09/10 02:11:11;;;;;;;13.05;5.93;;;;;;;22.15;61.62;98209.00;4487535;31;20072;-81
2022/09/10 02:13:37;;;;;;;10.73;4.50;;;;;;;21.90;62.23;98198.31;4487213;31;20467;-81
2022/09/10 02:16:07;;;;;;;10.05;4.47;;;;;;;21.75;61.25;98200.03;4487229;31;20175;-80
2022/09/10 02:18:32;;;;;;;10.63;4.00;;;;;;;21.89;58.94;98204.72;4487177;31;20106;-80
2022/09/10 02:20:59;;;;;;;9.77;3.87;;;;;;;21.93;59.15;98208.72;4473933;31;20085;-81
2022/09/10 02:23:32;;;;;;;9.93;3.53;;;;;;;21.99;59.67;98212.56;4487060;31;20112;-81
2022/09/10 02:25:57;;;;;;;8.50;3.30;;;;;;;21.85;60.07;98202.56;4487152;31;20172;-81
2022/09/10 02:28:23;;;;;;;9.60;3.80;;;;;;;21.89;59.90;98203.88;4501244;31;20459;-80
2022/09/10 02:30:48;;;;;;;9.48;3.37;;;;;;;21.69;60.00;98217.66;4501326;31;20129;-80
2022/09/10 02:33:17;;;;;;;9.65;3.50;;;;;;;21.74;59.95;98217.13;4486979;31;20122;-80
2022/09/10 02:35:42;;;;;;;8.95;3.45;;;;;;;21.58;59.57;98223.34;4503643;31;20115;-80
2022/09/10 02:38:08;;;;;;;9.82;3.35;;;;;;;21.61;59.48;98209.59;4489269;31;20325;-81
2022/09/10 02:40:34;;;;;;;7.90;3.30;;;;;;;21.35;60.01;98196.34;4503480;31;20080;-81
2022/09/10 02:42:59;;;;;;;8.45;3.35;;;;;;;21.48;60.17;98198.53;4503601;31;20144;-81
2022/09/10 02:45:25;;;;;;;8.93;3.03;;;;;;;21.38;60.66;98191.50;4503612;31;20112;-81
2022/09/10 02:47:51;;;;;;;9.35;3.03;;;;;;;20.89;61.44;98183.38;4489194;31;20096;-79
2022/09/10 02:50:17;;;;;;;7.82;2.67;;;;;;;20.36;63.30;98195.25;4489089;31;20104;-79
2022/09/10 02:52:45;;;;;;;9.02;3.40;;;;;;;20.72;61.88;98200.41;4489120;31;20171;-79
2022/09/10 02:55:11;;;;;;;8.25;2.95;;;;;;;20.41;62.93;98207.09;4503498;31;20141;-79
2022/09/10 02:57:38;;;;;;;7.07;2.58;;;;;;;20.91;61.32;98205.47;4489262;31;20087;-79
2022/09/10 03:00:05;;;;;;;9.90;3.33;;;;;;;20.43;61.73;98210.47;4488950;31;20092;-79
2022/09/10 03:02:31;;;;;;;10.38;3.33;;;;;;;19.99;63.46;98209.72;4489166;31;20093;-79
2022/09/10 03:04:56;;;;;;;8.48;2.85;;;;;;;20.33;61.77;98207.06;4503419;31;20115;-79
2022/09/10 03:07:21;;;;;;;7.47;2.45;;;;;;;20.10;61.19;98211.31;4503413;31;20104;-78
2022/09/10 03:09:47;;;;;;;8.10;2.40;;;;;;;19.89;61.67;98215.19;4503395;31;20076;-78
2022/09/10 03:12:14;;;;;;;8.05;2.58;;;;;;;19.78;62.65;98212.75;4503340;31;20447;-78
2022/09/10 03:14:40;;;;;;;6.82;2.53;;;;;;;19.75;62.42;98223.78;4489231;31;20443;-79
2022/09/10 03:17:06;;;;;;;6.62;1.90;;;;;;;20.09;61.66;98217.63;4503352;31;20110;-79
2022/09/10 03:19:31;;;;;;;7.62;2.40;;;;;;;19.88;61.33;98216.19;4503460;31;20088;-79
2022/09/10 03:21:56;;;;;;;6.35;2.20;;;;;;;19.47;63.60;98212.31;4503356;31;20476;-79
2022/09/10 03:24:24;;;;;;;6.75;1.70;;;;;;;19.28;63.78;98208.84;4503476;31;20118;-79
2022/09/10 03:26:49;;;;;;;7.75;1.67;;;;;;;19.84;62.38;98209.50;4503711;31;20088;-79
2022/09/10 03:29:15;;;;;;;7.30;1.98;;;;;;;19.70;61.71;98210.87;4503407;31;20072;-79
2022/09/10 03:31:41;;;;;;;6.10;1.77;;;;;;;19.81;61.00;98213.28;4503418;31;20380;-79
2022/09/10 03:34:08;;;;;;;4.53;1.50;;;;;;;20.00;60.54;98208.75;4503528;31;20566;-78
2022/09/10 03:36:34;;;;;;;5.85;1.50;;;;;;;19.74;60.74;98208.72;4488988;31;20076;-78
2022/09/10 03:38:59;;;;;;;5.28;1.40;;;;;;;19.40;62.01;98214.78;4488961;31;20122;-79
2022/09/10 03:41:27;;;;;;;6.40;1.70;;;;;;;19.67;60.78;98203.16;4475911;31;20108;-78
2022/09/10 03:43:53;;;;;;;4.15;1.40;;;;;;;19.77;60.33;98193.22;4489147;31;20114;-79
2022/09/10 03:46:19;;;;;;;5.25;1.80;;;;;;;19.82;60.46;98196.28;4502603;31;20424;-78
2022/09/10 03:48:45;;;;;;;5.00;1.60;;;;;;;19.88;60.32;98197.47;4503368;31;20072;-78
2022/09/10 03:51:11;;;;;;;5.47;1.60;;;;;;;19.79;60.24;98193.06;4503536;31;20243;-78
2022/09/10 03:53:37;;;;;;;5.05;1.62;;;;;;;20.04;59.29;98194.87;4503234;31;20432;-78
2022/09/10 03:56:03;;;;;;;6.28;1.62;;;;;;;20.07;58.72;98200.91;4503337;31;20158;-78
2022/09/10 03:58:28;;;;;;;3.40;1.27;;;;;;;19.74;60.45;98198.03;4503308;31;20071;-79
2022/09/10 04:00:54;;;;;;;4.90;1.60;;;;;;;19.87;60.41;98192.28;4488738;31;20127;-79
2022/09/10 04:03:19;;;;;;;6.80;1.80;;;;;;;20.00;60.19;98198.06;4503255;31;20099;-78
2022/09/10 04:05:45;;;;;;;5.25;2.25;;;;;;;20.19;59.81;98200.50;4503102;31;20135;-78
2022/09/10 04:08:11;;;;;;;6.65;1.80;;;;;;;19.88;59.79;98199.31;4503273;31;20072;-78
2022/09/10 04:10:39;;;;;;;4.00;1.30;;;;;;;20.41;58.08;98192.91;4475753;31;20122;-78
2022/09/10 04:13:04;;;;;;;3.22;1.00;;;;;;;20.14;58.45;98197.44;4488876;31;20467;-78
2022/09/10 04:15:29;;;;;;;5.07;1.20;;;;;;;20.20;58.22;98201.31;4488889;31;20116;-78
2022/09/10 04:17:55;;;;;;;4.90;1.55;;;;;;;19.73;59.51;98207.06;4488645;31;20127;-79
2022/09/10 04:20:22;;;;;;;4.37;1.10;;;;;;;19.69;59.68;98213.69;4503183;31;20400;-78
2022/09/10 04:22:48;;;;;;;5.35;1.48;;;;;;;19.88;59.50;98218.03;4475745;31;20101;-78
2022/09/10 04:25:14;;;;;;;2.75;0.90;;;;;;;19.98;58.74;98216.91;4502854;31;20084;-78
2022/09/10 04:27:41;;;;;;;2.37;1.08;;;;;;;19.98;58.69;98216.09;4475544;31;20507;-78
2022/09/10 04:30:07;;;;;;;4.30;1.27;;;;;;;20.09;58.03;98207.81;4488523;31;20426;-79
2022/09/10 04:32:33;;;;;;;3.37;1.02;;;;;;;19.62;59.34;98211.66;4502768;31;20114;-78
2022/09/10 04:34:59;;;;;;;4.70;1.10;;;;;;;19.90;59.07;98216.87;4488447;31;20107;-78
2022/09/10 04:37:24;;;;;;;4.00;1.00;;;;;;;19.70;59.86;98221.56;4502811;31;20085;-78
2022/09/10 04:39:49;;;;;;;4.00;1.30;;;;;;;19.93;59.06;98227.22;4502634;31;20092;-78
2022/09/10 04:42:17;;;;;;;2.35;1.00;;;;;;;19.49;60.31;98239.72;4502843;31;20444;-78
2022/09/10 04:44:43;;;;;;;2.22;1.17;;;;;;;19.35;60.71;98233.09;4502801;31;20118;-78
2022/09/10 04:47:08;;;;;;;4.53;1.23;;;;;;;19.41;60.47;98228.00;4488213;31;20089;-78
2022/09/10 04:49:33;;;;;;;5.70;1.33;;;;;;;19.56;60.08;98227.44;4502463;31;20147;-78
2022/09/10 04:51:59;;;;;;;4.43;1.37;;;;;;;19.73;60.00;98231.94;4502646;31;20372;-78
2022/09/10 04:54:24;;;;;;;3.15;1.20;;;;;;;19.62;60.21;98229.47;4502786;31;20105;-79
2022/09/10 04:56:51;;;;;;;3.42;1.25;;;;;;;19.40;60.71;98234.31;4502476;31;20123;-79
2022/09/10 04:59:16;;;;;;;5.15;1.35;;;;;;;19.53;60.78;98235.75;4502492;31;20169;-77
2022/09/10 05:01:41;;;;;;;3.58;1.40;;;;;;;19.18;62.02;98224.09;4488229;31;20403;-79
2022/09/10 05:04:07;;;;;;;4.97;1.30;;;;;;;19.16;61.77;98226.06;4488213;31;20427;-78
2022/09/10 05:06:32;;;;;;;4.43;1.20;;;;;;;19.24;61.23;98215.50;4502364;31;20431;-78
2022/09/10 05:08:58;;;;;;;2.92;1.20;;;;;;;18.86;62.30;98228.13;4488100;31;20096;-78
2022/09/10 05:11:24;;;;;;;5.28;1.15;;;;;;;19.01;61.33;98223.09;4502500;31;20088;-79
2022/09/10 05:13:49;;;;;;;3.10;1.08;;;;;;;19.07;61.21;98222.50;4488140;31;20359;-78
2022/09/10 05:16:15;;;;;;;4.43;1.35;;;;;;;19.21;60.42;98216.63;4502490;31;20080;-79
2022/09/10 05:18:40;;;;;;;4.20;1.20;;;;;;;18.85;61.57;98226.41;4502235;31;20146;-81
2022/09/10 05:21:06;;;;;;;5.65;1.20;;;;;;;18.71;62.30;98222.41;4502274;31;20141;-81
2022/09/10 05:23:31;;;;;;;4.97;1.20;;;;;;;18.49;62.96;98222.81;4487995;31;20457;-81
2022/09/10 05:25:57;;;;;;;3.47;1.20;;;;;;;18.97;61.70;98221.72;4502257;31;20096;-81
2022/09/10 05:28:23;;;;;;;4.93;1.05;;;;;;;19.00;61.26;98222.25;4487857;31;20119;-81
2022/09/10 05:30:49;;;;;;;3.40;1.10;;;;;;;18.54;63.49;98229.38;4488013;31;20498;-80
2022/09/10 05:33:15;;;;;;;3.45;1.30;;;;;;;18.70;62.92;98222.53;4502213;31;20092;-81
2022/09/10 05:35:40;;;;;;;3.28;1.30;;;;;;;18.90;62.23;98224.16;4502092;31;20076;-80
2022/09/10 05:38:07;;;;;;;2.70;1.23;;;;;;;19.40;60.41;98226.31;4474506;31;20177;-81
2022/09/10 05:40:33;;;;;;;4.45;1.60;;;;;;;19.34;60.61;98229.59;4502235;31;20096;-80
2022/09/10 05:42:59;;;;;;;5.18;1.25;;;;;;;19.16;60.38;98236.75;4474611;31;20091;-81
2022/09/10 05:45:25;;;;;;;6.10;1.48;;;;;;;19.05;61.42;98236.00;4501974;31;20419;-81
2022/09/10 05:47:51;;;;;;;3.85;1.20;;;;;;;19.22;60.55;98234.34;4501973;31;20084;-80
2022/09/10 05:50:17;;;;;;;9.33;1.60;;;;;;;19.31;60.57;98232.56;4487809;31;20527;-81
2022/09/10 05:52:43;;;;;;;3.37;1.12;;;;;;;19.49;60.30;98239.72;4502056;31;20147;-80
2022/09/10 05:55:09;;;;;;;4.72;1.20;;;;;;;19.78;59.37;98235.00;4501840;31;20073;-80
2022/09/10 05:57:35;;;;;;;4.53;1.33;;;;;;;20.03;59.14;98228.00;4487607;31;20161;-80
2022/09/10 06:00:01;;;;;;;3.40;1.20;;;;;;;20.08;58.59;98230.19;4501428;31;20356;-81
2022/09/10 06:02:27;;;;;;;5.75;1.40;;;;;;;19.36;60.81;98235.63;4487387;31;20084;-80
2022/09/10 06:04:52;;;;;;;4.40;1.20;;;;;;;20.09;58.36;98231.00;4501722;31;20133;-80
2022/09/10 06:07:17;;;;;;;5.85;1.25;;;;;;;19.69;59.42;98237.75;4487361;31;20151;-80
2022/09/10 06:09:43;;;;;;;3.80;1.02;;;;;;;20.00;58.63;98230.97;4503046;31;20176;-81
2022/09/10 06:12:08;;;;;;;4.37;1.30;;;;;;;19.88;59.45;98221.53;4503704;31;20104;-81
2022/09/10 06:14:34;;;;;;;4.85;1.30;;;;;;;20.26;58.16;98221.25;4489347;31;20080;-80
2022/09/10 06:17:00;;;;;;;3.92;1.20;;;;;;;19.91;59.42;98223.88;4503749;31;20092;-81
2022/09/10 06:19:25;;;;;;;3.50;1.10;;;;;;;20.16;58.44;98224.03;4489406;31;20114;-80
2022/09/10 06:21:54;;;;;;;4.68;1.30;;;;;;;20.06;59.17;98220.66;4503743;31;20620;-81
2022/09/10 06:24:19;;;;;;;4.25;1.10;;;;;;;20.43;58.18;98217.66;4503726;31;20186;-80
2022/09/10 06:26:48;;;;;;;4.07;1.20;;;;;;;20.64;58.13;98211.91;4503638;31;20155;-80
2022/09/10 06:29:14;;;;;;;4.43;1.70;;;;;;;20.49;58.87;98213.50;4503731;31;20131;-81
2022/09/10 06:31:39;;;;;;;5.30;1.17;;;;;;;20.93;57.86;98210.66;4503570;31;20108;-80
2022/09/10 06:34:05;;;;;;;8.05;1.55;;;;;;;20.64;59.15;98209.25;4489100;31;20499;-81
2022/09/10 06:36:32;;;;;;;6.05;1.33;;;;;;;20.67;59.56;98208.06;4489358;31;20196;-80
2022/09/10 06:38:58;;;;;;;3.30;1.40;;;;;;;20.88;59.44;98210.31;4503561;31;20675;-81
2022/09/10 06:41:24;;;;;;;4.45;1.30;;;;;;;21.23;57.44;98219.94;4489332;31;20110;-81
2022/09/10 06:43:49;;;;;;;5.68;1.33;;;;;;;20.96;58.64;98215.72;4503475;31;20106;-81
2022/09/10 06:46:17;;;;;;;3.47;1.17;;;;;;;20.90;57.33;98224.38;4503425;31;20088;-81
2022/09/10 06:48:44;;;;;;;3.22;1.30;;;;;;;20.93;57.16;98219.53;4503611;31;20084;-81
2022/09/10 06:51:11;;;;;;;6.00;1.58;;;;;;;20.53;59.29;98218.37;4489586;31;20400;-81
2022/09/10 06:53:38;;;;;;;5.53;1.40;;;;;;;20.98;57.69;98219.06;4489515;31;20446;-81
2022/09/10 06:56:08;;;;;;;3.97;1.20;;;;;;;21.46;55.56;98227.34;4489491;31;20542;-81
2022/09/10 06:58:34;;;;;;;3.80;1.20;;;;;;;21.06;56.22;98237.00;4489191;31;20164;-81
2022/09/10 07:01:13;;;;;;;3.08;1.27;;;;;;;20.66;57.19;98236.69;4503276;31;20088;-81
2022/09/10 07:03:39;;;;;;;5.07;1.55;;;;;;;20.84;56.85;98236.56;4476211;31;20134;-81
2022/09/10 07:06:07;;;;;;;4.20;1.42;;;;;;;20.81;56.52;98236.91;4489057;31;20436;-80
2022/09/10 07:08:32;;;;;;;4.68;1.40;;;;;;;20.55;57.81;98237.78;4475920;31;20130;-80
2022/09/10 07:11:00;;;;;;;3.90;1.60;;;;;;;20.38;58.91;98247.56;4503360;31;20132;-81
2022/09/10 07:13:26;;;;;;;5.15;1.58;;;;;;;20.66;58.73;98230.50;4489064;31;20076;-80
2022/09/10 07:15:52;;;;;;;5.82;1.60;;;;;;;20.36;59.02;98254.09;4503218;31;20104;-80
2022/09/10 07:18:17;;;;;;;6.55;1.30;;;;;;;20.29;59.40;98255.72;4488990;31;20143;-80
2022/09/10 07:20:43;;;;;;;4.45;1.30;;;;;;;20.64;58.80;98257.41;4502299;31;20110;-81
2022/09/10 07:23:10;;;;;;;4.55;1.33;;;;;;;20.49;59.26;98254.47;4503353;31;20102;-81
2022/09/10 07:25:36;;;;;;;7.05;1.70;;;;;;;20.67;58.54;98262.47;4488889;31;20168;-81
2022/09/10 07:28:02;;;;;;;3.47;1.25;;;;;;;20.38;59.62;98257.44;4488891;31;20096;-81
2022/09/10 07:30:28;;;;;;;6.43;1.50;;;;;;;20.55;58.67;98247.63;4503278;31;20118;-81
2022/09/10 07:32:53;;;;;;;5.00;1.70;;;;;;;20.39;59.50;98256.44;4488828;31;20170;-80
2022/09/10 07:35:20;;;;;;;4.32;1.58;;;;;;;20.44;59.31;98262.16;4503232;31;20360;-80
2022/09/10 07:37:45;;;;;;;5.10;1.80;;;;;;;20.32;59.84;98271.44;4489007;31;20122;-80
2022/09/10 07:40:11;;;;;;;4.68;1.55;;;;;;;20.57;59.31;98273.25;4502952;31;20552;-80
2022/09/10 07:42:37;;;;;;;5.10;1.80;;;;;;;20.49;58.91;98273.19;4488871;31;20087;-80
2022/09/10 07:45:04;;;;;;;5.82;1.90;;;;;;;20.65;58.63;98274.31;4503240;31;20127;-81
2022/09/10 07:47:30;;;;;;;3.80;1.62;;;;;;;20.39;59.88;98273.31;4489012;31;20127;-80
2022/09/10 07:49:55;;;;;;;4.57;1.70;;;;;;;20.58;59.05;98280.28;4503212;31;20146;-81
2022/09/10 07:52:21;;;;;;;5.50;1.80;;;;;;;20.91;58.07;98287.66;4503095;31;20138;-80
2022/09/10 07:54:46;;;;;;;6.45;2.00;;;;;;;20.72;58.78;98289.56;4503215;31;20167;-81
2022/09/10 07:57:12;;;;;;;6.22;1.62;;;;;;;20.76;58.48;98296.28;4503154;31;20106;-80
2022/09/10 07:59:37;;;;;;;4.75;1.70;;;;;;;20.50;58.85;98296.28;4502676;31;20110;-80
2022/09/10 08:02:05;;;;;;;5.37;1.70;;;;;;;20.00;60.58;98297.81;4503079;31;20072;-80
2022/09/10 08:04:31;;;;;;;5.43;1.90;;;;;;;20.43;60.10;98303.28;4503023;31;20114;-80
2022/09/10 08:06:57;;;;;;;6.80;1.90;;;;;;;20.86;58.22;98296.16;4503052;31;20485;-81
2022/09/10 08:09:24;;;;;;;5.97;1.80;;;;;;;20.58;59.32;98303.53;4488809;31;20088;-81
2022/09/10 08:11:49;;;;;;;6.60;1.90;;;;;;;20.65;59.81;98299.25;4488771;31;20092;-81
2022/09/10 08:14:15;;;;;;;5.40;1.90;;;;;;;20.81;59.20;98301.16;4502964;31;20108;-81
2022/09/10 08:16:40;;;;;;;4.87;1.65;;;;;;;21.14;58.20;98306.63;4502989;31;20138;-81
2022/09/10 08:19:07;;;;;;;5.22;1.70;;;;;;;21.58;56.98;98312.62;4488500;31;20096;-81
2022/09/10 08:21:33;;;;;;;4.97;1.42;;;;;;;21.53;56.61;98306.06;4488625;31;20087;-81
2022/09/10 08:23:59;;;;;;;7.57;1.85;;;;;;;21.64;56.87;98305.75;4502872;31;20462;-81
2022/09/10 08:26:25;;;;;;;3.87;1.50;;;;;;;;;;4503017;31;20084;-81
2022/09/10 08:28:51;;;;;;;4.60;1.40;;;;;;;21.80;55.99;98304.94;4502838;31;20147;-81
2022/09/10 08:31:16;;;;;;;4.87;1.52;;;;;;;21.68;55.88;98301.75;4487994;31;20107;-81
2022/09/10 08:33:50;;;;;;;3.78;1.40;;;;;;;21.77;55.76;98297.25;4502792;31;20362;-81
2022/09/10 08:36:17;;;;;;;3.33;1.60;;;;;;;22.45;54.11;98292.50;4488380;31;20096;-81
2022/09/10 08:38:43;;;;;;;4.57;1.40;;;;;;;22.43;53.87;98295.34;4502747;31;20147;-81
2022/09/10 08:41:31;;;;;;;7.85;1.70;;;;;;;22.40;54.40;98284.13;4488352;31;20084;-81
2022/09/10 08:44:08;;;;;;;6.53;1.70;;;;;;;22.34;52.99;98294.50;4480303;31;20096;-81
2022/09/10 08:46:48;;;;;;;5.65;1.37;;;;;;;22.53;51.35;98292.47;4502849;31;20175;-81
2022/09/10 08:49:33;;;;;;;3.80;1.50;;;;;;;22.07;52.60;98305.59;4488409;31;20159;-80
2022/09/10 08:52:20;;;;;;;3.92;1.37;;;;;;;21.51;54.38;98292.00;4474984;31;20145;-81
2022/09/10 08:55:19;;;;;;;4.75;1.50;;;;;;;21.69;54.00;98298.06;4488378;31;20108;-81
2022/09/10 08:57:46;;;;;;;;;;;;;;;;;;4494416;31;20092;-81
2022/09/10 09:00:16;;;;;;;4.15;1.27;;;;;;;21.47;53.42;98301.37;4502764;31;20531;-81
2022/09/10 09:03:01;;;;;;;3.78;1.10;;;;;;;21.67;52.58;98299.22;4488522;31;20095;-81
2022/09/10 09:05:38;;;;;;;4.55;1.20;;;;;;;21.85;52.02;98299.91;4475505;31;20523;-81
2022/09/10 09:08:05;;;;;;;4.55;1.20;;;;;;;22.02;50.75;98305.25;4502550;31;20483;-81
2022/09/10 09:10:47;;;;;;;2.60;1.00;;;;;;;21.83;50.52;98296.56;4502612;31;20088;-80
2022/09/10 09:13:28;;;;;;;3.03;1.00;;;;;;;21.94;51.34;98301.59;4488162;31;20107;-81
2022/09/10 09:16:31;;;;;;;3.62;0.90;;;;;;;22.09;50.86;98315.13;4502465;31;20104;-81
2022/09/10 09:19:02;;;;;;;2.50;0.90;;;;;;;21.78;51.77;98310.44;4502337;31;20122;-81
2022/09/10 09:21:54;;;;;;;2.58;1.00;;;;;;;21.94;51.14;98312.31;4502302;31;20088;-81
2022/09/10 09:24:41;;;;;;;1.70;0.65;;;;;;;21.34;52.83;98312.53;4499093;31;20084;-81
2022/09/10 09:27:12;;;;;;;2.90;0.85;;;;;;;22.23;50.65;98307.41;4488063;31;20464;-81
2022/09/10 09:30:17;;;;;;;2.25;0.75;;;;;;;22.68;50.02;98303.34;4488020;31;20150;-81
2022/09/10 09:32:44;;;;;;;2.58;0.80;;;;;;;22.91;48.05;98315.00;4409269;32;20491;-80
2022/09/10 09:35:31;;;;;;;2.00;0.90;;;;;;;22.69;48.06;98310.38;4422038;32;20111;-80
2022/09/10 09:38:07;;;;;;;2.45;0.80;;;;;;;22.54;48.74;98300.34;4409485;32;20105;-81
2022/09/10 09:40:48;;;;;;;2.70;0.80;;;;;;;22.24;49.13;98307.25;4409431;32;20169;-81
2022/09/10 09:43:33;;;;;;;2.05;0.88;;;;;;;22.48;48.95;98310.94;4422252;32;20097;-81
2022/09/10 09:45:58;;;;;;;1.62;0.73;;;;;;;22.58;48.49;98306.22;4424235;32;20136;-80
2022/09/10 09:48:25;;;;;;;2.87;0.90;;;;;;;22.37;48.55;98304.91;4411245;32;20362;-81
2022/09/10 09:50:53;;;;;;;3.75;0.80;;;;;;;22.48;48.67;98294.81;4398657;32;20459;-81
2022/09/10 09:53:21;;;;;;;2.75;0.70;;;;;;;22.31;48.90;98283.28;4424188;32;20162;-81
2022/09/10 09:55:58;;;;;;;1.25;0.60;;;;;;;22.42;47.43;98282.94;4423976;32;20102;-81
2022/09/10 09:58:23;;;;;;;2.40;0.77;;;;;;;22.73;47.31;98287.53;4423844;32;20101;-81
2022/09/10 10:01:13;;;;;;;4.18;0.80;;;;;;;23.07;46.76;98283.72;4423358;32;20135;-80
2022/09/10 10:03:50;;;;;;;1.87;0.70;;;;;;;22.81;47.81;98286.66;4418360;32;20604;-80
2022/09/10 10:06:18;;;;;;;1.87;0.60;;;;;;;23.27;45.69;98282.25;4398537;32;20118;-80
2022/09/10 10:08:53;;;;;;;;;;;;;;;23.04;45.94;98276.84;4467412;31;20108;-81
2022/09/10 10:11:20;;;;;;;1.25;0.50;;;;;;;23.47;44.21;98284.47;4503961;31;20027;-81
2022/09/10 10:13:46;;;;;;;1.85;0.60;;;;;;;23.17;44.29;98274.41;4489463;31;20110;-81
2022/09/10 10:16:36;;;;;;;1.70;0.60;;;;;;;23.06;44.98;98269.44;4489415;31;20109;-81
2022/09/10 10:19:02;;;;;;;1.58;0.60;;;;;;;23.77;43.50;98266.62;4503880;31;20690;-81
2022/09/10 10:21:33;;;;;;;1.00;0.50;;;;;;;23.44;43.62;98260.66;4489431;31;20096;-81
2022/09/10 10:23:59;;;;;;;3.28;0.80;;;;;;;23.83;42.60;98260.53;4489439;31;20092;-81
2022/09/10 10:26:27;;;;;;;1.85;0.50;;;;;;;23.79;42.27;98259.22;4476280;31;20451;-81
2022/09/10 10:28:54;;;;;;;;;;;;;;;23.73;43.48;98263.44;4489846;31;20104;-81
2022/09/10 10:31:20;;;;;;;3.47;0.80;;;;;;;23.66;43.03;98262.50;4476339;31;19991;-81
2022/09/10 10:34:17;;;;;;;2.33;0.70;;;;;;;23.92;42.56;98258.63;4489383;31;20125;-81
2022/09/10 10:37:01;;;;;;;1.45;0.60;;;;;;;23.87;41.81;98259.16;4423417;32;20132;-81
2022/09/10 10:39:40;;;;;;;1.62;0.50;;;;;;;23.64;42.61;98263.69;4423279;32;20101;-81
2022/09/10 10:42:12;;;;;;;2.80;0.60;;;;;;;23.87;41.87;98269.91;4410732;32;20094;-81
2022/09/10 10:44:42;;;;;;;0.88;0.50;;;;;;;23.83;42.00;98252.47;4423522;32;20482;-81
2022/09/10 10:47:32;;;;;;;3.22;0.57;;;;;;;23.59;41.97;98258.88;4423550;32;20112;-81
2022/09/10 10:50:20;;;;;;;1.60;0.43;;;;;;;23.69;40.88;98246.00;4423744;32;20520;-81
2022/09/10 10:53:07;;;;;;;1.25;0.50;;;;;;;23.76;39.63;98251.50;4423359;32;20097;-81
2022/09/10 10:55:40;;;;;;;1.40;0.40;;;;;;;23.53;39.79;98251.53;4410533;32;20152;-81
2022/09/10 10:58:08;;;;;;;2.20;0.50;;;;;;;23.22;40.40;98265.84;4410654;32;20190;-81
2022/09/10 11:00:44;;;;;;;1.10;0.60;;;;;;;23.62;39.32;98254.97;4423169;32;20194;-81
2022/09/10 11:03:31;;;;;;;1.17;0.50;;;;;;;23.83;39.40;98259.72;4423397;32;20101;-81
2022/09/10 11:06:00;;;;;;;1.02;0.50;;;;;;;23.68;39.35;98257.78;4410503;32;20122;-81
2022/09/10 11:08:37;;;;;;;0.40;0.40;;;;;;;23.69;39.74;98251.38;4423221;32;20111;-81
2022/09/10 11:11:10;;;;;;;2.08;0.62;;;;;;;23.57;40.06;98250.16;4423332;32;20197;-81
2022/09/10 11:13:40;;;;;;;3.30;0.60;;;;;;;23.81;39.90;98246.44;4470907;31;20108;-81
2022/09/10 11:16:13;;;;;;;2.80;0.62;;;;;;;23.77;39.94;98261.22;4503565;31;20777;-81
2022/09/10 11:19:01;;;;;;;1.25;0.45;;;;;;;23.61;39.81;98264.91;4489019;31;20431;-81
2022/09/10 11:21:39;;;;;;;1.30;0.60;;;;;;;23.62;40.03;98246.91;4489007;31;20119;-81
2022/09/10 11:24:17;;;;;;;4.35;0.60;;;;;;;23.70;40.09;98262.97;4489018;31;20104;-81
2022/09/10 11:26:48;;;;;;;1.40;0.60;;;;;;;23.53;40.01;98265.78;4489107;31;20152;-81
2022/09/10 11:29:30;;;;;;;2.55;0.60;;;;;;;23.17;40.96;98254.78;4503286;31;20439;-81
2022/09/10 11:32:03;;;;;;;2.60;0.68;;;;;;;23.42;40.97;98265.38;4488792;31;20730;-81
2022/09/10 11:35:10;;;;;;;1.83;0.55;;;;;;;23.57;40.87;98262.75;4488888;31;20167;-81
2022/09/10 11:37:49;;;;;;;4.03;0.60;;;;;;;23.60;41.30;98268.59;4425676;32;20116;-81
2022/09/10 11:40:27;;;;;;;1.55;0.60;;;;;;;23.93;40.25;98257.59;4438315;32;20120;-81
2022/09/10 11:42:57;;;;;;;3.80;0.70;;;;;;;24.06;40.92;98263.19;4438385;32;20213;-81
2022/09/10 11:46:01;;;;;;;2.47;0.60;;;;;;;24.07;40.64;98262.19;4438390;32;20178;-81
2022/09/10 11:48:35;;;;;;;3.33;0.70;;;;;;;23.48;41.61;98249.34;4392645;32;20109;-81